sensor_id;sensor_type;location;lat;lon;timestamp;pressure;altitude;pressure_sealevel;temperature;humidity
56456;BME280;42354;53.218;6.564;2023-01-19T00:00:44;47003.69;;;-142.92;95.75
56456;BME280;42354;53.218;6.564;2023-01-19T00:03:09;47026.28;;;-142.92;95.88
56456;BME280;42354;53.218;6.564;2023-01-19T00:05:41;47007.81;;;-142.92;95.93
56456;BME280;42354;53.218;6.564;2023-01-19T00:08:07;47016.00;;;-142.92;95.84
56456;BME280;42354;53.218;6.564;2023-01-19T00:10:40;46995.50;;;-142.92;95.80
56456;BME280;42354;53.218;6.564;2023-01-19T00:13:05;46995.50;;;-142.92;95.86
56456;BME280;42354;53.218;6.564;2023-01-19T00:15:31;47016.00;;;-142.92;96.00
56456;BME280;42354;53.218;6.564;2023-01-19T00:17:56;47011.91;;;-142.92;95.99
56456;BME280;42354;53.218;6.564;2023-01-19T00:20:21;46999.59;;;-142.92;95.95
56456;BME280;42354;53.218;6.564;2023-01-19T00:22:47;47016.00;;;-142.92;95.84
56456;BME280;42354;53.218;6.564;2023-01-19T00:25:15;47005.75;;;-142.92;95.93
56456;BME280;42354;53.218;6.564;2023-01-19T00:27:40;47003.69;;;-142.92;95.95
56456;BME280;42354;53.218;6.564;2023-01-19T00:30:06;46999.59;;;-142.92;95.70
56456;BME280;42354;53.218;6.564;2023-01-19T00:32:32;46999.59;;;-142.92;95.86
56456;BME280;42354;53.218;6.564;2023-01-19T00:34:57;46987.28;;;-142.92;95.74
56456;BME280;42354;53.218;6.564;2023-01-19T00:37:23;46987.28;;;-142.92;95.79
56456;BME280;42354;53.218;6.564;2023-01-19T00:39:48;47016.00;;;-142.92;96.09
56456;BME280;42354;53.218;6.564;2023-01-19T00:42:13;47024.22;;;-142.92;96.10
56456;BME280;42354;53.218;6.564;2023-01-19T00:44:57;46997.53;;;-142.92;96.24
56456;BME280;42354;53.218;6.564;2023-01-19T00:47:23;47020.13;;;-142.92;96.57
56456;BME280;42354;53.218;6.564;2023-01-19T00:49:48;47013.97;;;-142.92;96.37
56456;BME280;42354;53.218;6.564;2023-01-19T00:52:14;47003.69;;;-142.92;96.45
56456;BME280;42354;53.218;6.564;2023-01-19T00:54:39;47003.69;;;-142.92;96.67
56456;BME280;42354;53.218;6.564;2023-01-19T00:57:04;47022.16;;;-142.92;96.54
56456;BME280;42354;53.218;6.564;2023-01-19T00:59:30;47026.28;;;-142.92;96.59
56456;BME280;42354;53.218;6.564;2023-01-19T01:01:55;47007.81;;;-142.92;96.66
56456;BME280;42354;53.218;6.564;2023-01-19T01:04:21;46989.34;;;-142.92;96.69
56456;BME280;42354;53.218;6.564;2023-01-19T01:06:46;47009.84;;;-142.92;96.80
56456;BME280;42354;53.218;6.564;2023-01-19T01:09:12;47007.81;;;-142.92;97.15
56456;BME280;42354;53.218;6.564;2023-01-19T01:11:41;47011.91;;;-142.92;96.94
56456;BME280;42354;53.218;6.564;2023-01-19T01:14:07;47007.81;;;-142.92;96.96
56456;BME280;42354;53.218;6.564;2023-01-19T01:16:33;47013.97;;;-142.92;96.97
56456;BME280;42354;53.218;6.564;2023-01-19T01:18:59;46999.59;;;-142.92;97.15
56456;BME280;42354;53.218;6.564;2023-01-19T01:21:24;47003.69;;;-142.92;97.13
56456;BME280;42354;53.218;6.564;2023-01-19T01:23:49;46977.03;;;-142.92;97.29
56456;BME280;42354;53.218;6.564;2023-01-19T01:26:15;47007.81;;;-142.92;97.26
56456;BME280;42354;53.218;6.564;2023-01-19T01:28:40;47016.00;;;-142.92;97.26
56456;BME280;42354;53.218;6.564;2023-01-19T01:31:05;47001.66;;;-142.92;97.43
56456;BME280;42354;53.218;6.564;2023-01-19T01:33:31;47034.47;;;-142.92;97.30
56456;BME280;42354;53.218;6.564;2023-01-19T01:35:56;47011.91;;;-142.92;97.35
56456;BME280;42354;53.218;6.564;2023-01-19T01:38:22;47018.06;;;-142.92;97.43
56456;BME280;42354;53.218;6.564;2023-01-19T01:40:47;46997.53;;;-142.92;97.44
56456;BME280;42354;53.218;6.564;2023-01-19T01:43:15;47007.81;;;-142.92;97.53
56456;BME280;42354;53.218;6.564;2023-01-19T01:45:41;46989.34;;;-142.92;97.60
56456;BME280;42354;53.218;6.564;2023-01-19T01:50:59;47011.91;;;-142.92;97.34
56456;BME280;42354;53.218;6.564;2023-01-19T01:53:47;47001.66;;;-142.92;97.67
56456;BME280;42354;53.218;6.564;2023-01-19T01:56:19;47018.06;;;-142.92;97.59
56456;BME280;42354;53.218;6.564;2023-01-19T01:58:47;47005.75;;;-142.92;97.69
56456;BME280;42354;53.218;6.564;2023-01-19T02:01:13;46989.34;;;-142.92;97.84
56456;BME280;42354;53.218;6.564;2023-01-19T02:03:57;47005.75;;;-142.92;97.89
56456;BME280;42354;53.218;6.564;2023-01-19T02:06:24;46999.59;;;-142.92;97.54
56456;BME280;42354;53.218;6.564;2023-01-19T02:09:01;46997.53;;;-142.92;97.49
56456;BME280;42354;53.218;6.564;2023-01-19T02:11:46;47001.66;;;-142.92;97.61
56456;BME280;42354;53.218;6.564;2023-01-19T02:14:31;47020.13;;;-142.92;97.39
56456;BME280;42354;53.218;6.564;2023-01-19T02:16:56;47013.97;;;-142.92;97.40
56456;BME280;42354;53.218;6.564;2023-01-19T02:19:26;47003.69;;;-142.92;97.24
56456;BME280;42354;53.218;6.564;2023-01-19T02:22:06;47018.06;;;-142.92;97.12
56456;BME280;42354;53.218;6.564;2023-01-19T02:24:34;47001.66;;;-142.92;97.34
56456;BME280;42354;53.218;6.564;2023-01-19T02:27:00;46999.59;;;-142.92;97.21
56456;BME280;42354;53.218;6.564;2023-01-19T02:29:27;47005.75;;;-142.92;97.29
56456;BME280;42354;53.218;6.564;2023-01-19T02:31:52;47007.81;;;-142.92;97.57
56456;BME280;42354;53.218;6.564;2023-01-19T02:34:20;47005.75;;;-142.92;97.35
56456;BME280;42354;53.218;6.564;2023-01-19T02:36:52;47001.66;;;-142.92;97.35
56456;BME280;42354;53.218;6.564;2023-01-19T02:39:21;47018.06;;;-142.92;97.52
56456;BME280;42354;53.218;6.564;2023-01-19T02:41:52;47016.00;;;-142.92;97.58
56456;BME280;42354;53.218;6.564;2023-01-19T02:44:21;47011.91;;;-142.92;97.46
56456;BME280;42354;53.218;6.564;2023-01-19T02:46:47;47013.97;;;-142.92;97.61
56456;BME280;42354;53.218;6.564;2023-01-19T02:49:13;47007.81;;;-142.92;97.58
56456;BME280;42354;53.218;6.564;2023-01-19T02:51:41;47011.91;;;-142.92;97.70
56456;BME280;42354;53.218;6.564;2023-01-19T02:54:35;47022.16;;;-142.92;97.36
56456;BME280;42354;53.218;6.564;2023-01-19T02:57:24;47011.91;;;-142.92;97.45
56456;BME280;42354;53.218;6.564;2023-01-19T03:00:48;47003.69;;;-142.92;97.48
56456;BME280;42354;53.218;6.564;2023-01-19T03:03:09;47009.84;;;-142.92;97.51
56456;BME280;42354;53.218;6.564;2023-01-19T03:05:54;47007.81;;;-142.92;97.49
56456;BME280;42354;53.218;6.564;2023-01-19T03:08:30;47013.97;;;-142.92;97.70
56456;BME280;42354;53.218;6.564;2023-01-19T03:11:05;47018.06;;;-142.92;97.39
56456;BME280;42354;53.218;6.564;2023-01-19T03:16:23;47009.84;;;-142.92;97.53
56456;BME280;42354;53.218;6.564;2023-01-19T03:18:54;47007.81;;;-142.92;97.61
56456;BME280;42354;53.218;6.564;2023-01-19T03:21:25;47020.13;;;-142.92;97.46
56456;BME280;42354;53.218;6.564;2023-01-19T03:23:52;46991.38;;;-142.92;97.72
56456;BME280;42354;53.218;6.564;2023-01-19T03:26:23;46995.50;;;-142.92;97.69
56456;BME280;42354;53.218;6.564;2023-01-19T03:28:50;47032.44;;;-142.92;97.74
56456;BME280;42354;53.218;6.564;2023-01-19T03:31:23;47020.13;;;-142.92;97.65
56456;BME280;42354;53.218;6.564;2023-01-19T03:33:51;47032.44;;;-142.92;97.71
56456;BME280;42354;53.218;6.564;2023-01-19T03:36:26;47018.06;;;-142.92;97.53
56456;BME280;42354;53.218;6.564;2023-01-19T03:38:57;47005.75;;;-142.92;97.74
56456;BME280;42354;53.218;6.564;2023-01-19T03:41:23;47001.66;;;-142.92;97.84
56456;BME280;42354;53.218;6.564;2023-01-19T03:43:51;47018.06;;;-142.92;97.76
56456;BME280;42354;53.218;6.564;2023-01-19T03:46:18;46999.59;;;-142.92;97.69
56456;BME280;42354;53.218;6.564;2023-01-19T03:48:44;46991.38;;;-142.92;97.94
56456;BME280;42354;53.218;6.564;2023-01-19T03:51:10;47007.81;;;-142.92;97.81
56456;BME280;42354;53.218;6.564;2023-01-19T03:53:36;46995.50;;;-142.92;97.88
56456;BME280;42354;53.218;6.564;2023-01-19T03:56:02;46999.59;;;-142.92;98.04
56456;BME280;42354;53.218;6.564;2023-01-19T03:58:27;47003.69;;;-142.92;98.20
56456;BME280;42354;53.218;6.564;2023-01-19T04:00:53;47016.00;;;-142.92;98.16
56456;BME280;42354;53.218;6.564;2023-01-19T04:03:18;46999.59;;;-142.92;98.04
56456;BME280;42354;53.218;6.564;2023-01-19T04:05:44;47016.00;;;-142.92;97.99
56456;BME280;42354;53.218;6.564;2023-01-19T04:08:09;47003.69;;;-142.92;98.23
56456;BME280;42354;53.218;6.564;2023-01-19T04:10:36;47026.28;;;-142.92;98.19
56456;BME280;42354;53.218;6.564;2023-01-19T04:13:02;47024.22;;;-142.92;98.25
56456;BME280;42354;53.218;6.564;2023-01-19T04:15:28;47007.81;;;-142.92;98.19
56456;BME280;42354;53.218;6.564;2023-01-19T04:17:56;47011.91;;;-142.92;98.21
56456;BME280;42354;53.218;6.564;2023-01-19T04:20:21;47007.81;;;-142.92;98.41
56456;BME280;42354;53.218;6.564;2023-01-19T04:22:47;46993.44;;;-142.92;98.33
56456;BME280;42354;53.218;6.564;2023-01-19T04:25:13;47030.38;;;-142.92;98.18
56456;BME280;42354;53.218;6.564;2023-01-19T04:27:39;47011.91;;;-142.92;98.28
56456;BME280;42354;53.218;6.564;2023-01-19T04:30:04;47007.81;;;-142.92;98.09
56456;BME280;42354;53.218;6.564;2023-01-19T04:32:31;46999.59;;;-142.92;98.20
56456;BME280;42354;53.218;6.564;2023-01-19T04:34:57;47005.75;;;-142.92;98.21
56456;BME280;42354;53.218;6.564;2023-01-19T04:37:23;47005.75;;;-142.92;98.03
56456;BME280;42354;53.218;6.564;2023-01-19T04:39:48;47036.53;;;-142.92;98.23
56456;BME280;42354;53.218;6.564;2023-01-19T04:42:13;47003.69;;;-142.92;98.24
56456;BME280;42354;53.218;6.564;2023-01-19T04:44:39;47003.69;;;-142.92;98.11
56456;BME280;42354;53.218;6.564;2023-01-19T04:47:04;47018.06;;;-142.92;98.06
56456;BME280;42354;53.218;6.564;2023-01-19T04:49:30;47011.91;;;-142.92;98.16
56456;BME280;42354;53.218;6.564;2023-01-19T04:51:55;46991.38;;;-142.92;98.13
56456;BME280;42354;53.218;6.564;2023-01-19T04:54:20;47007.81;;;-142.92;98.25
56456;BME280;42354;53.218;6.564;2023-01-19T04:56:46;47016.00;;;-142.92;98.35
56456;BME280;42354;53.218;6.564;2023-01-19T04:59:11;47020.13;;;-142.92;98.40
56456;BME280;42354;53.218;6.564;2023-01-19T05:01:37;47016.00;;;-142.92;98.42
56456;BME280;42354;53.218;6.564;2023-01-19T05:04:02;46997.53;;;-142.92;98.63
56456;BME280;42354;53.218;6.564;2023-01-19T05:06:30;47011.91;;;-142.92;98.36
56456;BME280;42354;53.218;6.564;2023-01-19T05:08:56;47007.81;;;-142.92;98.50
56456;BME280;42354;53.218;6.564;2023-01-19T05:11:21;47005.75;;;-142.92;98.41
56456;BME280;42354;53.218;6.564;2023-01-19T05:13:46;47016.00;;;-142.92;98.53
56456;BME280;42354;53.218;6.564;2023-01-19T05:16:12;46991.38;;;-142.92;98.53
56456;BME280;42354;53.218;6.564;2023-01-19T05:18:38;46989.34;;;-142.92;98.58
56456;BME280;42354;53.218;6.564;2023-01-19T05:21:04;47022.16;;;-142.92;98.80
56456;BME280;42354;53.218;6.564;2023-01-19T05:23:29;47016.00;;;-142.92;98.82
56456;BME280;42354;53.218;6.564;2023-01-19T05:25:57;47007.81;;;-142.92;98.80
56456;BME280;42354;53.218;6.564;2023-01-19T05:28:28;47020.13;;;-142.92;98.71
56456;BME280;42354;53.218;6.564;2023-01-19T05:30:53;47024.22;;;-142.92;98.69
56456;BME280;42354;53.218;6.564;2023-01-19T05:33:22;47018.06;;;-142.92;98.70
56456;BME280;42354;53.218;6.564;2023-01-19T05:35:49;46999.59;;;-142.92;98.46
56456;BME280;42354;53.218;6.564;2023-01-19T05:38:15;47011.91;;;-142.92;98.43
56456;BME280;42354;53.218;6.564;2023-01-19T05:40:40;46997.53;;;-142.92;98.40
56456;BME280;42354;53.218;6.564;2023-01-19T05:43:05;47016.00;;;-142.92;98.57
56456;BME280;42354;53.218;6.564;2023-01-19T05:45:31;47016.00;;;-142.92;98.25
56456;BME280;42354;53.218;6.564;2023-01-19T05:47:56;47013.97;;;-142.92;97.83
56456;BME280;42354;53.218;6.564;2023-01-19T05:50:22;47011.91;;;-142.92;97.48
56456;BME280;42354;53.218;6.564;2023-01-19T05:52:47;47022.16;;;-142.92;97.50
56456;BME280;42354;53.218;6.564;2023-01-19T05:55:13;47024.22;;;-142.92;97.13
56456;BME280;42354;53.218;6.564;2023-01-19T05:57:38;47020.13;;;-142.92;96.93
56456;BME280;42354;53.218;6.564;2023-01-19T06:00:04;47003.69;;;-142.92;96.97
56456;BME280;42354;53.218;6.564;2023-01-19T06:02:30;47003.69;;;-142.92;96.37
56456;BME280;42354;53.218;6.564;2023-01-19T06:04:55;47032.44;;;-142.92;95.81
56456;BME280;42354;53.218;6.564;2023-01-19T06:07:21;47011.91;;;-142.92;95.37
56456;BME280;42354;53.218;6.564;2023-01-19T06:09:46;47020.13;;;-142.92;95.02
56456;BME280;42354;53.218;6.564;2023-01-19T06:12:12;47001.66;;;-142.92;94.66
56456;BME280;42354;53.218;6.564;2023-01-19T06:14:37;47013.97;;;-142.92;94.02
56456;BME280;42354;53.218;6.564;2023-01-19T06:17:03;47024.22;;;-142.92;92.14
56456;BME280;42354;53.218;6.564;2023-01-19T06:19:30;46995.50;;;-142.92;90.26
56456;BME280;42354;53.218;6.564;2023-01-19T06:21:55;47013.97;;;-142.92;89.32
56456;BME280;42354;53.218;6.564;2023-01-19T06:24:21;47013.97;;;-142.92;89.04
56456;BME280;42354;53.218;6.564;2023-01-19T06:26:47;47028.31;;;-142.92;88.76
56456;BME280;42354;53.218;6.564;2023-01-19T06:29:13;46999.59;;;-142.92;88.64
56456;BME280;42354;53.218;6.564;2023-01-19T06:31:39;47016.00;;;-142.92;88.28
56456;BME280;42354;53.218;6.564;2023-01-19T06:34:04;47011.91;;;-142.92;87.45
56456;BME280;42354;53.218;6.564;2023-01-19T06:36:30;47026.28;;;-142.92;85.67
56456;BME280;42354;53.218;6.564;2023-01-19T06:38:55;47003.69;;;-142.92;85.37
56456;BME280;42354;53.218;6.564;2023-01-19T06:41:21;47028.31;;;-142.92;85.79
56456;BME280;42354;53.218;6.564;2023-01-19T06:43:46;47026.28;;;-142.92;86.09
56456;BME280;42354;53.218;6.564;2023-01-19T06:46:11;47013.97;;;-142.92;86.60
56456;BME280;42354;53.218;6.564;2023-01-19T06:48:38;47011.91;;;-142.92;87.04
56456;BME280;42354;53.218;6.564;2023-01-19T06:51:03;47032.44;;;-142.92;87.41
56456;BME280;42354;53.218;6.564;2023-01-19T06:53:30;47020.13;;;-142.92;87.60
56456;BME280;42354;53.218;6.564;2023-01-19T06:56:00;47013.97;;;-142.92;87.75
56456;BME280;42354;53.218;6.564;2023-01-19T06:58:29;47020.13;;;-142.92;87.77
56456;BME280;42354;53.218;6.564;2023-01-19T07:01:00;46995.50;;;-142.92;88.01
56456;BME280;42354;53.218;6.564;2023-01-19T07:03:25;47013.97;;;-142.92;88.23
56456;BME280;42354;53.218;6.564;2023-01-19T07:05:51;47022.16;;;-142.92;88.39
56456;BME280;42354;53.218;6.564;2023-01-19T07:08:17;47001.66;;;-142.92;88.67
56456;BME280;42354;53.218;6.564;2023-01-19T07:10:42;47009.84;;;-142.92;88.21
56456;BME280;42354;53.218;6.564;2023-01-19T07:13:08;47020.13;;;-142.92;88.33
56456;BME280;42354;53.218;6.564;2023-01-19T07:15:33;46995.50;;;-142.92;88.50
56456;BME280;42354;53.218;6.564;2023-01-19T07:17:59;47005.75;;;-142.92;88.23
56456;BME280;42354;53.218;6.564;2023-01-19T07:20:27;46989.34;;;-142.92;88.39
56456;BME280;42354;53.218;6.564;2023-01-19T07:22:56;47013.97;;;-142.92;88.09
56456;BME280;42354;53.218;6.564;2023-01-19T07:25:21;46995.50;;;-142.92;87.83
56456;BME280;42354;53.218;6.564;2023-01-19T07:27:47;47016.00;;;-142.92;87.34
56456;BME280;42354;53.218;6.564;2023-01-19T07:30:13;47005.75;;;-142.92;86.76
56456;BME280;42354;53.218;6.564;2023-01-19T07:32:40;47028.31;;;-142.92;86.80
56456;BME280;42354;53.218;6.564;2023-01-19T07:35:07;47005.75;;;-142.92;87.15
56456;BME280;42354;53.218;6.564;2023-01-19T07:37:33;47046.78;;;-142.92;87.55
56456;BME280;42354;53.218;6.564;2023-01-19T07:39:58;47016.00;;;-142.92;87.89
56456;BME280;42354;53.218;6.564;2023-01-19T07:42:24;47011.91;;;-142.92;88.53
56456;BME280;42354;53.218;6.564;2023-01-19T07:44:49;47018.06;;;-142.92;88.75
56456;BME280;42354;53.218;6.564;2023-01-19T07:47:14;47022.16;;;-142.92;88.67
56456;BME280;42354;53.218;6.564;2023-01-19T07:49:40;47016.00;;;-142.92;88.67
56456;BME280;42354;53.218;6.564;2023-01-19T07:52:05;47016.00;;;-142.92;88.84
56456;BME280;42354;53.218;6.564;2023-01-19T07:54:30;47003.69;;;-142.92;88.66
56456;BME280;42354;53.218;6.564;2023-01-19T07:56:56;47016.00;;;-142.92;88.91
56456;BME280;42354;53.218;6.564;2023-01-19T07:59:21;47020.13;;;-142.92;88.44
56456;BME280;42354;53.218;6.564;2023-01-19T08:01:46;47018.06;;;-142.92;87.36
56456;BME280;42354;53.218;6.564;2023-01-19T08:04:12;47026.28;;;-142.92;86.13
56456;BME280;42354;53.218;6.564;2023-01-19T08:06:38;46979.06;;;-142.92;86.29
56456;BME280;42354;53.218;6.564;2023-01-19T08:09:04;47022.16;;;-142.92;85.16
56456;BME280;42354;53.218;6.564;2023-01-19T08:11:31;47024.22;;;-142.92;84.15
56456;BME280;42354;53.218;6.564;2023-01-19T08:13:57;47018.06;;;-142.92;83.37
56456;BME280;42354;53.218;6.564;2023-01-19T08:16:22;47013.97;;;-142.92;82.90
56456;BME280;42354;53.218;6.564;2023-01-19T08:18:48;47028.31;;;-142.92;82.14
56456;BME280;42354;53.218;6.564;2023-01-19T08:21:13;47001.66;;;-142.92;82.56
56456;BME280;42354;53.218;6.564;2023-01-19T08:23:39;47032.44;;;-142.92;82.19
56456;BME280;42354;53.218;6.564;2023-01-19T08:28:52;47009.84;;;-142.92;80.08
56456;BME280;42354;53.218;6.564;2023-01-19T08:31:17;47024.22;;;-142.92;80.17
56456;BME280;42354;53.218;6.564;2023-01-19T08:33:42;46999.59;;;-142.92;80.52
56456;BME280;42354;53.218;6.564;2023-01-19T08:36:08;47011.91;;;-142.92;80.08
56456;BME280;42354;53.218;6.564;2023-01-19T08:38:33;47007.81;;;-142.92;79.83
56456;BME280;42354;53.218;6.564;2023-01-19T08:40:58;47024.22;;;-142.92;79.25
56456;BME280;42354;53.218;6.564;2023-01-19T08:43:24;47030.38;;;-142.92;79.16
56456;BME280;42354;53.218;6.564;2023-01-19T08:45:50;47028.31;;;-142.92;78.95
56456;BME280;42354;53.218;6.564;2023-01-19T08:48:19;47026.28;;;-142.92;78.92
56456;BME280;42354;53.218;6.564;2023-01-19T08:50:47;47016.00;;;-142.92;79.16
56456;BME280;42354;53.218;6.564;2023-01-19T08:53:13;47011.91;;;-142.92;79.32
56456;BME280;42354;53.218;6.564;2023-01-19T08:55:39;47024.22;;;-142.92;78.82
56456;BME280;42354;53.218;6.564;2023-01-19T08:58:05;47042.69;;;-142.92;78.75
56456;BME280;42354;53.218;6.564;2023-01-19T09:00:33;47036.53;;;-142.92;79.10
56456;BME280;42354;53.218;6.564;2023-01-19T09:02:59;47028.31;;;-142.92;79.24
56456;BME280;42354;53.218;6.564;2023-01-19T09:05:29;47009.84;;;-142.92;79.73
56456;BME280;42354;53.218;6.564;2023-01-19T09:07:56;47020.13;;;-142.92;79.85
56456;BME280;42354;53.218;6.564;2023-01-19T09:10:21;47028.31;;;-142.92;79.75
56456;BME280;42354;53.218;6.564;2023-01-19T09:12:46;47018.06;;;-142.92;79.20
56456;BME280;42354;53.218;6.564;2023-01-19T09:15:12;47011.91;;;-142.92;78.57
56456;BME280;42354;53.218;6.564;2023-01-19T09:17:39;47024.22;;;-142.92;78.40
56456;BME280;42354;53.218;6.564;2023-01-19T09:20:06;47034.47;;;-142.92;77.93
56456;BME280;42354;53.218;6.564;2023-01-19T09:22:31;47016.00;;;-142.92;78.31
56456;BME280;42354;53.218;6.564;2023-01-19T09:24:58;47011.91;;;-142.92;78.58
56456;BME280;42354;53.218;6.564;2023-01-19T09:27:23;47009.84;;;-142.92;78.63
56456;BME280;42354;53.218;6.564;2023-01-19T09:29:49;47005.75;;;-142.92;78.52
56456;BME280;42354;53.218;6.564;2023-01-19T09:32:19;47028.31;;;-142.92;78.47
56456;BME280;42354;53.218;6.564;2023-01-19T09:34:44;47024.22;;;-142.92;78.12
56456;BME280;42354;53.218;6.564;2023-01-19T09:37:10;47022.16;;;-142.92;78.18
56456;BME280;42354;53.218;6.564;2023-01-19T09:39:35;46999.59;;;-142.92;77.74
56456;BME280;42354;53.218;6.564;2023-01-19T09:42:22;47020.13;;;-142.92;77.17
56456;BME280;42354;53.218;6.564;2023-01-19T09:44:51;47024.22;;;-142.92;77.19
56456;BME280;42354;53.218;6.564;2023-01-19T09:47:22;47024.22;;;-142.92;77.16
56456;BME280;42354;53.218;6.564;2023-01-19T09:50:04;47032.44;;;-142.92;76.68
56456;BME280;42354;53.218;6.564;2023-01-19T09:52:33;47028.31;;;-142.92;76.82
56456;BME280;42354;53.218;6.564;2023-01-19T09:55:01;46997.53;;;-142.92;76.61
56456;BME280;42354;53.218;6.564;2023-01-19T09:57:26;47024.22;;;-142.92;75.87
56456;BME280;42354;53.218;6.564;2023-01-19T09:59:52;47016.00;;;-142.92;75.91
56456;BME280;42354;53.218;6.564;2023-01-19T10:03:02;46997.53;;;-142.92;75.64
56456;BME280;42354;53.218;6.564;2023-01-19T10:05:48;47030.38;;;-142.92;75.56
56456;BME280;42354;53.218;6.564;2023-01-19T10:10:54;47032.44;;;-142.92;74.95
56456;BME280;42354;53.218;6.564;2023-01-19T10:13:42;47022.16;;;-142.92;74.32
56456;BME280;42354;53.218;6.564;2023-01-19T10:16:45;47026.28;;;-142.92;74.26
56456;BME280;42354;53.218;6.564;2023-01-19T10:19:32;47007.81;;;-142.92;74.23
56456;BME280;42354;53.218;6.564;2023-01-19T10:22:03;47028.31;;;-142.92;74.00
56456;BME280;42354;53.218;6.564;2023-01-19T10:24:39;47018.06;;;-142.92;73.64
56456;BME280;42354;53.218;6.564;2023-01-19T10:27:16;47040.63;;;-142.92;73.93
56456;BME280;42354;53.218;6.564;2023-01-19T10:29:43;46997.53;;;-142.92;73.15
56456;BME280;42354;53.218;6.564;2023-01-19T10:32:13;47020.13;;;-142.92;73.28
56456;BME280;42354;53.218;6.564;2023-01-19T10:34:44;47018.06;;;-142.92;73.24
56456;BME280;42354;53.218;6.564;2023-01-19T10:39:43;47038.59;;;-142.92;72.03
56456;BME280;42354;53.218;6.564;2023-01-19T10:42:12;47030.38;;;-142.92;72.38
56456;BME280;42354;53.218;6.564;2023-01-19T10:44:40;47007.81;;;-142.92;72.62
56456;BME280;42354;53.218;6.564;2023-01-19T10:47:13;47009.84;;;-142.92;72.79
56456;BME280;42354;53.218;6.564;2023-01-19T10:49:40;47026.28;;;-142.92;72.51
56456;BME280;42354;53.218;6.564;2023-01-19T10:52:28;47018.06;;;-142.92;71.49
56456;BME280;42354;53.218;6.564;2023-01-19T10:55:02;47011.91;;;-142.92;71.45
56456;BME280;42354;53.218;6.564;2023-01-19T10:57:34;47013.97;;;-142.92;70.31
56456;BME280;42354;53.218;6.564;2023-01-19T11:00:02;47018.06;;;-142.92;70.33
56456;BME280;42354;53.218;6.564;2023-01-19T11:02:30;47007.81;;;-142.92;70.65
56456;BME280;42354;53.218;6.564;2023-01-19T11:05:00;47007.81;;;-142.92;70.80
56456;BME280;42354;53.218;6.564;2023-01-19T11:07:28;47011.91;;;-142.92;70.18
56456;BME280;42354;53.218;6.564;2023-01-19T11:12:55;47034.47;;;-142.92;69.22
56456;BME280;42354;53.218;6.564;2023-01-19T11:15:31;47016.00;;;-142.92;68.29
56456;BME280;42354;53.218;6.564;2023-01-19T11:17:58;47036.53;;;-142.92;68.64
56456;BME280;42354;53.218;6.564;2023-01-19T11:20:48;47046.78;;;-142.92;68.11
56456;BME280;42354;53.218;6.564;2023-01-19T11:23:50;47026.28;;;-142.92;67.52
56456;BME280;42354;53.218;6.564;2023-01-19T11:26:13;47032.44;;;-142.92;67.63
56456;BME280;42354;53.218;6.564;2023-01-19T11:28:47;47022.16;;;-142.92;68.25
56456;BME280;42354;53.218;6.564;2023-01-19T11:34:00;47024.22;;;-142.92;66.39
56456;BME280;42354;53.218;6.564;2023-01-19T11:36:32;47022.16;;;-142.92;67.64
56456;BME280;42354;53.218;6.564;2023-01-19T11:39:02;47042.69;;;-142.92;67.81
56456;BME280;42354;53.218;6.564;2023-01-19T11:41:40;47018.06;;;-142.92;68.01
56456;BME280;42354;53.218;6.564;2023-01-19T11:44:24;47009.84;;;-142.92;67.21
56456;BME280;42354;53.218;6.564;2023-01-19T11:46:55;47046.78;;;-142.92;66.91
56456;BME280;42354;53.218;6.564;2023-01-19T11:49:31;47032.44;;;-142.92;66.70
56456;BME280;42354;53.218;6.564;2023-01-19T11:52:15;47026.28;;;-142.92;66.50
56456;BME280;42354;53.218;6.564;2023-01-19T11:54:53;47009.84;;;-142.92;65.15
56456;BME280;42354;53.218;6.564;2023-01-19T11:57:20;47003.69;;;-142.92;64.54
56456;BME280;42354;53.218;6.564;2023-01-19T11:59:46;47024.22;;;-142.92;64.28
56456;BME280;42354;53.218;6.564;2023-01-19T12:02:43;47028.31;;;-142.92;62.90
56456;BME280;42354;53.218;6.564;2023-01-19T12:05:15;47020.13;;;-142.92;61.43
56456;BME280;42354;53.218;6.564;2023-01-19T12:07:44;46991.38;;;-142.92;62.04
56456;BME280;42354;53.218;6.564;2023-01-19T12:10:32;47030.38;;;-142.92;61.74
56456;BME280;42354;53.218;6.564;2023-01-19T12:13:00;47024.22;;;-142.92;62.60
56456;BME280;42354;53.218;6.564;2023-01-19T12:15:38;47024.22;;;-142.92;63.37
56456;BME280;42354;53.218;6.564;2023-01-19T12:18:11;47036.53;;;-142.92;63.78
56456;BME280;42354;53.218;6.564;2023-01-19T12:20:42;47013.97;;;-142.92;63.95
56456;BME280;42354;53.218;6.564;2023-01-19T12:25:51;47011.91;;;-142.92;63.27
56456;BME280;42354;53.218;6.564;2023-01-19T12:28:27;47042.69;;;-142.92;62.75
56456;BME280;42354;53.218;6.564;2023-01-19T12:30:56;47013.97;;;-142.92;62.49
56456;BME280;42354;53.218;6.564;2023-01-19T12:33:32;47036.53;;;-142.92;62.18
56456;BME280;42354;53.218;6.564;2023-01-19T12:36:01;47016.00;;;-142.92;62.30
56456;BME280;42354;53.218;6.564;2023-01-19T12:43:42;47028.31;;;-142.92;60.97
56456;BME280;42354;53.218;6.564;2023-01-19T12:46:38;47020.13;;;-142.92;59.84
56456;BME280;42354;53.218;6.564;2023-01-19T12:51:47;47024.22;;;-142.92;58.93
56456;BME280;42354;53.218;6.564;2023-01-19T12:54:27;47013.97;;;-142.92;58.62
56456;BME280;42354;53.218;6.564;2023-01-19T12:57:00;47034.47;;;-142.92;58.28
56456;BME280;42354;53.218;6.564;2023-01-19T12:59:27;47026.28;;;-142.92;56.93
56456;BME280;42354;53.218;6.564;2023-01-19T13:18:45;47011.91;;;-142.92;59.53
56456;BME280;42354;53.218;6.564;2023-01-19T13:21:13;47026.28;;;-142.92;60.12
56456;BME280;42354;53.218;6.564;2023-01-19T13:23:54;47022.16;;;-142.92;60.20
56456;BME280;42354;53.218;6.564;2023-01-19T13:26:29;47024.22;;;-142.92;60.90
56456;BME280;42354;53.218;6.564;2023-01-19T13:32:00;46999.59;;;-142.92;61.16
56456;BME280;42354;53.218;6.564;2023-01-19T13:34:55;47024.22;;;-142.92;60.92
56456;BME280;42354;53.218;6.564;2023-01-19T13:37:26;47005.75;;;-142.92;61.64
56456;BME280;42354;53.218;6.564;2023-01-19T13:39:53;47042.69;;;-142.92;62.16